Akraberg, Faroe Islands

12:41 PM WEST on August 28, 2014 (GMT +0100)
Vagar | Change Station
CLOSE
Current Station
Airport
Location: Vagar,
Elevation: 279 ft
Nearby Weather Stations

Elev 279 ft 62.07 °N, 7.28 °W | Updated 21 minutes ago

Mostly Cloudy
Mostly Cloudy
54 °F
Feels Like 54 °F
N
23
Wind Variable Wind from East
Gusts 36 mph

Today
High -- | Low -- °F
--% Chance of Precip.
Yesterday
High -- | Low -- °F
Precip. -- in
6:07 AM 8:46 PM
Waxing Crescent, 8% visible
Pressure 29.80 in
Visibility 6.2 miles
Clouds Mostly Cloudy 1700 ft
Dew Point 48 °F
Humidity 82%
Rainfall 0.00 in
Snow Depth Not available.
UV 2 out of 12
Pollen Not available.
Air Quality Not available.
Flu Activity Not available.
METAR EKVG 281120Z AUTO 10020G31KT 9999NDV BKN017/// 12/09 Q1009 RMK OVC017/// WIND 850FT 12036KT

More Conditions Fewer Conditions

Pressure 29.80 in
Visibility 6.2 miles
Clouds Mostly Cloudy 1700 ft
Dew Point 48 °F
Humidity 82%
Rainfall 0.00 in
Snow Depth Not available.
UV 2 out of 12
Pollen Not available.
Air Quality Not available.
Flu Activity Not available.
METAR EKVG 281120Z AUTO 10020G31KT 9999NDV BKN017/// 12/09 Q1009 RMK OVC017/// WIND 850FT 12036KT

More Conditions Fewer Conditions

10-Day Weather Forecast

Almanac

Astronomy

Aug. 28, 2014 Rise Set
Actual Time 6:07 AM WEST 8:46 PM WEST
Civil Twilight 5:18 AM WEST 9:35 PM WEST
Nautical Twilight 4:11 AM WEST 10:41 PM WEST
Astronomical Twilight 2:22 AM WEST 12:22 AM WEST
Moon 9:43 AM WEST 9:00 PM WEST
Length of Visible Light 16h 17m
Length of Day
14h 39m
Tomorrow will be 5m 42s shorter.
Waxing Crescent, 8% of the Moon is Illuminated
Today
Waxing Crescent
Sep 2
First Quarter
Sep 8
Full
Sep 15
Last Quarter
Sep 24
New

Yesterday's Extremes

Country Highs Country Lows

Community

WunderPhotos

Upload Photos

1,747,929 photos uploaded!

Nearby

Snow Depth

Not available.

Earthquake Activity

City Distance Mag. Time & Date
No recent earthquake activity has been reported nearby.
Minimum magnitude displayed is 2.5.

Coastal Water Temperatures

Place Temperature
No Stations Reporting

Nearby Weather Stations